Time;durP1;ratioP1;P1;durP2;ratioP2;P2;SDS_P1;SDS_P2;PMS_P1;PMS_P2;Temp;Humidity;BMP_temperature;BMP_pressure;BME280_temperature;BME280_humidity;BME280_pressure;Samples;Min_cycle;Max_cycle;Signal;HPM_P1;HPM_P2
2022/01/29 00:00:07;;;;;;;14.43;4.88;;;;;;;;;;4921294;29;20032;-31
2022/01/29 00:02:33;;;;;;;13.10;3.97;;;;;;;;;;4921380;29;20024;-31
2022/01/29 00:05:00;;;;;;;13.52;4.10;;;;;;;;;;4919965;29;20147;-30
2022/01/29 00:07:26;;;;;;;16.33;4.60;;;;;;;;;;4921375;29;20039;-30
2022/01/29 00:10:00;;;;;;;7.82;4.03;;;;;;;;;;4921846;29;20344;-31
2022/01/29 00:12:26;;;;;;;10.10;3.65;;;;;;;;;;4921339;29;20029;-30
2022/01/29 00:14:52;;;;;;;10.77;3.88;;;;;;;;;;4921241;29;20035;-31
2022/01/29 00:17:19;;;;;;;7.55;4.70;;;;;;;;;;4921239;29;20115;-31
2022/01/29 00:19:45;;;;;;;7.93;4.57;;;;;;;;;;4920954;29;20156;-31
2022/01/29 00:22:11;;;;;;;7.72;4.22;;;;;;;;;;4921069;29;20377;-31
2022/01/29 00:24:37;;;;;;;13.13;4.43;;;;;;;;;;4921150;29;20044;-30
2022/01/29 00:27:08;;;;;;;7.63;3.88;;;;;;;;;;4921079;29;20047;-32
2022/01/29 00:29:37;;;;;;;11.93;5.07;;;;;;;;;;4921037;29;20028;-30
2022/01/29 00:32:04;;;;;;;8.00;3.60;;;;;;;;;;4920532;29;20032;-31
2022/01/29 00:34:30;;;;;;;11.90;4.45;;;;;;;;;;4920862;29;20036;-30
2022/01/29 00:36:56;;;;;;;9.43;5.10;;;;;;;;;;4921099;29;20036;-31
2022/01/29 00:39:22;;;;;;;11.23;4.00;;;;;;;;;;4920777;29;20060;-31
2022/01/29 00:41:49;;;;;;;11.88;4.40;;;;;;;;;;4919873;29;20103;-30
2022/01/29 00:44:15;;;;;;;8.40;4.22;;;;;;;;;;4920942;29;20031;-30
2022/01/29 00:46:41;;;;;;;12.70;5.07;;;;;;;;;;4920497;29;20024;-32
2022/01/29 00:49:11;;;;;;;8.35;4.28;;;;;;;;;;4920612;29;20364;-31
2022/01/29 00:51:37;;;;;;;7.65;3.55;;;;;;;;;;4920362;29;20479;-31
2022/01/29 00:54:04;;;;;;;6.57;4.10;;;;;;;;;;4920230;29;20173;-31
2022/01/29 00:56:30;;;;;;;8.98;4.20;;;;;;;;;;4920388;29;20480;-31
2022/01/29 00:58:56;;;;;;;10.73;3.90;;;;;;;;;;4920557;29;20028;-30
2022/01/29 01:01:22;;;;;;;7.90;3.58;;;;;;;;;;4920259;29;20028;-30
2022/01/29 01:03:48;;;;;;;11.80;4.75;;;;;;;;;;4919871;29;20036;-30
2022/01/29 01:06:15;;;;;;;11.00;4.90;;;;;;;;;;4920456;29;20052;-32
2022/01/29 01:08:41;;;;;;;8.63;3.80;;;;;;;;;;4920092;29;20032;-31
2022/01/29 01:11:07;;;;;;;8.10;4.32;;;;;;;;;;4920656;29;20036;-30
2022/01/29 01:13:34;;;;;;;13.63;5.78;;;;;;;;;;4919959;29;20452;-30
2022/01/29 01:16:01;;;;;;;10.43;5.28;;;;;;;;;;4919990;29;20047;-31
2022/01/29 01:18:27;;;;;;;8.02;3.92;;;;;;;;;;4919930;29;20032;-30
2022/01/29 01:20:53;;;;;;;8.82;4.00;;;;;;;;;;4919846;29;20158;-31
2022/01/29 01:23:20;;;;;;;12.32;4.35;;;;;;;;;;4919902;29;20062;-31
2022/01/29 01:25:47;;;;;;;11.98;4.03;;;;;;;;;;4920075;29;20083;-32
2022/01/29 01:28:13;;;;;;;11.50;5.00;;;;;;;;;;4919721;29;20477;-31
2022/01/29 01:30:39;;;;;;;10.57;4.30;;;;;;;;;;4919737;29;20032;-30
2022/01/29 01:33:06;;;;;;;7.20;4.07;;;;;;;;;;4919783;29;20028;-30
2022/01/29 01:35:42;;;;;;;10.18;3.63;;;;;;;;;;4919840;29;20189;-31
2022/01/29 01:38:17;;;;;;;11.98;4.07;;;;;;;;;;4919582;29;20024;-31
2022/01/29 01:40:48;;;;;;;9.50;4.22;;;;;;;;;;4919489;29;20032;-32
2022/01/29 01:43:15;;;;;;;16.50;5.50;;;;;;;;;;4919729;29;20048;-30
2022/01/29 01:45:41;;;;;;;9.60;4.18;;;;;;;;;;4919411;29;20185;-30
2022/01/29 01:48:07;;;;;;;9.95;4.63;;;;;;;;;;4919419;29;20028;-30
2022/01/29 01:50:35;;;;;;;11.27;3.95;;;;;;;;;;4919634;29;20036;-31
2022/01/29 01:53:01;;;;;;;11.63;3.80;;;;;;;;;;4919112;29;20032;-31
2022/01/29 01:55:27;;;;;;;10.95;4.85;;;;;;;;;;4919801;29;20103;-31
2022/01/29 01:57:54;;;;;;;8.05;3.60;;;;;;;;;;4919229;29;20028;-30
2022/01/29 02:00:20;;;;;;;12.70;5.43;;;;;;;;;;4919140;29;20032;-30
2022/01/29 02:02:46;;;;;;;9.95;4.15;;;;;;;;;;4919112;29;20111;-30
2022/01/29 02:05:12;;;;;;;12.15;3.95;;;;;;;;;;4919595;29;20131;-30
2022/01/29 02:07:39;;;;;;;13.13;4.10;;;;;;;;;;4919341;29;20025;-30
2022/01/29 02:10:10;;;;;;;5.53;4.38;;;;;;;;;;4919049;29;20353;-31
2022/01/29 02:12:50;;;;;;;8.07;3.63;;;;;;;;;;4918874;29;20038;-31
2022/01/29 02:15:17;;;;;;;11.75;4.20;;;;;;;;;;4918902;29;20043;-30
2022/01/29 02:17:45;;;;;;;9.13;4.22;;;;;;;;;;4919103;29;20055;-30
2022/01/29 02:20:11;;;;;;;9.35;3.50;;;;;;;;;;4919402;29;20024;-31
2022/01/29 02:22:39;;;;;;;9.75;4.13;;;;;;;;;;4919142;29;20087;-30
2022/01/29 02:25:05;;;;;;;7.38;4.40;;;;;;;;;;4918773;29;20048;-31
2022/01/29 02:27:32;;;;;;;8.48;4.35;;;;;;;;;;4918693;29;20036;-31
2022/01/29 02:29:59;;;;;;;11.75;4.57;;;;;;;;;;4918714;29;20464;-31
2022/01/29 02:32:25;;;;;;;10.75;4.63;;;;;;;;;;4918579;29;20063;-29
2022/01/29 02:34:51;;;;;;;7.32;3.80;;;;;;;;;;4918846;29;20378;-32
2022/01/29 02:37:18;;;;;;;8.15;4.90;;;;;;;;;;4918616;29;20059;-31
2022/01/29 02:39:44;;;;;;;13.02;3.95;;;;;;;;;;4918558;29;20028;-30
2022/01/29 02:42:10;;;;;;;8.20;3.50;;;;;;;;;;4918476;29;20036;-30
2022/01/29 02:44:36;;;;;;;9.75;3.85;;;;;;;;;;4919088;29;20040;-32
2022/01/29 02:47:27;;;;;;;7.85;3.63;;;;;;;;;;4917843;29;20035;-30
2022/01/29 02:49:53;;;;;;;6.97;3.38;;;;;;;;;;4918540;29;20032;-32
2022/01/29 02:52:19;;;;;;;9.82;4.88;;;;;;;;;;4918403;29;20498;-33
2022/01/29 02:54:45;;;;;;;9.80;4.10;;;;;;;;;;4918905;29;20028;-31
2022/01/29 02:57:11;;;;;;;9.48;4.10;;;;;;;;;;4918943;29;20032;-31
2022/01/29 02:59:37;;;;;;;10.88;4.20;;;;;;;;;;4918637;29;20411;-29
2022/01/29 03:02:04;;;;;;;7.43;4.70;;;;;;;;;;4918537;29;20032;-32
2022/01/29 03:04:30;;;;;;;7.75;4.20;;;;;;;;;;4921577;29;20515;-30
2022/01/29 03:06:56;;;;;;;11.05;4.95;;;;;;;;;;4922296;29;20036;-32
2022/01/29 03:09:22;;;;;;;8.63;4.40;;;;;;;;;;4922257;29;20028;-30
2022/01/29 03:11:48;;;;;;;7.22;3.85;;;;;;;;;;4922101;29;20039;-31
2022/01/29 03:14:14;;;;;;;7.90;4.57;;;;;;;;;;4922105;29;20028;-32
2022/01/29 03:16:41;;;;;;;5.38;3.90;;;;;;;;;;4922396;29;20024;-31
2022/01/29 03:19:08;;;;;;;6.70;3.75;;;;;;;;;;4922316;29;20043;-32
2022/01/29 03:21:34;;;;;;;13.70;3.58;;;;;;;;;;4922053;29;20043;-31
2022/01/29 03:24:00;;;;;;;7.60;4.05;;;;;;;;;;4922454;29;20032;-31
2022/01/29 03:26:26;;;;;;;7.63;4.15;;;;;;;;;;4921957;29;20075;-30
2022/01/29 03:28:52;;;;;;;7.65;4.63;;;;;;;;;;4922151;29;20028;-30
2022/01/29 03:31:18;;;;;;;5.97;3.33;;;;;;;;;;4921889;29;20028;-33
2022/01/29 03:33:44;;;;;;;6.68;3.72;;;;;;;;;;4921959;29;20028;-30
2022/01/29 03:36:10;;;;;;;7.47;4.25;;;;;;;;;;4922022;29;20079;-29
2022/01/29 03:38:40;;;;;;;7.80;4.07;;;;;;;;;;4921964;29;20106;-31
2022/01/29 03:41:07;;;;;;;6.65;3.60;;;;;;;;;;4921706;29;20109;-31
2022/01/29 03:43:41;;;;;;;7.85;3.70;;;;;;;;;;4921813;29;20119;-31
2022/01/29 03:46:07;;;;;;;6.88;3.88;;;;;;;;;;4921602;29;20036;-31
2022/01/29 03:48:34;;;;;;;5.35;3.72;;;;;;;;;;4921487;29;20036;-32
2022/01/29 03:51:01;;;;;;;7.00;3.70;;;;;;;;;;4921494;29;20039;-32
2022/01/29 03:53:27;;;;;;;8.23;3.80;;;;;;;;;;4921459;29;20031;-32
2022/01/29 03:55:53;;;;;;;4.47;3.10;;;;;;;;;;4921703;29;20020;-32
2022/01/29 03:58:19;;;;;;;7.50;3.80;;;;;;;;;;4921390;29;20020;-33
2022/01/29 04:00:45;;;;;;;8.30;4.20;;;;;;;;;;4921363;29;20088;-32
2022/01/29 04:03:11;;;;;;;6.70;3.75;;;;;;;;;;4920256;29;20028;-31
2022/01/29 04:05:37;;;;;;;6.93;3.28;;;;;;;;;;4921208;29;20044;-29
2022/01/29 04:08:09;;;;;;;10.75;3.97;;;;;;;;;;4921223;29;20047;-31
2022/01/29 04:10:36;;;;;;;7.05;3.65;;;;;;;;;;4921434;29;20040;-30
2022/01/29 04:13:02;;;;;;;8.68;3.78;;;;;;;;;;4920917;29;20036;-29
2022/01/29 04:15:28;;;;;;;5.65;3.63;;;;;;;;;;4920373;29;20032;-31
2022/01/29 04:17:54;;;;;;;9.98;4.55;;;;;;;;;;4921530;29;20148;-30
2022/01/29 04:20:21;;;;;;;5.22;3.33;;;;;;;;;;4921253;29;20040;-30
2022/01/29 04:22:47;;;;;;;4.82;3.67;;;;;;;;;;4921104;29;20032;-32
2022/01/29 04:25:14;;;;;;;8.40;3.70;;;;;;;;;;4920923;29;20035;-33
2022/01/29 04:27:43;;;;;;;8.23;3.53;;;;;;;;;;4920834;29;20105;-32
2022/01/29 04:30:15;;;;;;;10.63;3.55;;;;;;;;;;4921106;29;20107;-31
2022/01/29 04:35:08;;;;;;;8.45;4.20;;;;;;;;;;4920601;29;20040;-32
2022/01/29 04:37:34;;;;;;;9.80;3.80;;;;;;;;;;4920715;29;20024;-30
2022/01/29 04:40:00;;;;;;;7.00;3.22;;;;;;;;;;4920961;29;20475;-30
2022/01/29 04:42:26;;;;;;;5.65;3.17;;;;;;;;;;4920810;29;20400;-32
2022/01/29 04:44:52;;;;;;;4.55;3.63;;;;;;;;;;4921344;29;20392;-33
2022/01/29 04:47:18;;;;;;;4.93;3.33;;;;;;;;;;4921013;29;20036;-30
2022/01/29 04:49:44;;;;;;;6.32;3.55;;;;;;;;;;4920407;29;20028;-31
2022/01/29 04:52:10;;;;;;;4.50;2.92;;;;;;;;;;4920358;29;20468;-32
2022/01/29 04:54:37;;;;;;;7.13;3.88;;;;;;;;;;4920291;29;20032;-31
2022/01/29 04:57:03;;;;;;;5.90;3.15;;;;;;;;;;4920539;29;20092;-31
2022/01/29 04:59:29;;;;;;;5.85;3.60;;;;;;;;;;4920230;29;20028;-30
2022/01/29 05:01:55;;;;;;;6.60;3.72;;;;;;;;;;4920627;29;20028;-32
2022/01/29 05:04:21;;;;;;;9.10;3.78;;;;;;;;;;4918927;29;20457;-30
2022/01/29 05:06:47;;;;;;;5.75;3.10;;;;;;;;;;4919913;29;20060;-33
2022/01/29 05:09:14;;;;;;;6.55;3.75;;;;;;;;;;4919929;29;20036;-31
2022/01/29 05:11:43;;;;;;;3.47;3.15;;;;;;;;;;4920108;29;20095;-30
2022/01/29 05:14:17;;;;;;;7.18;3.78;;;;;;;;;;4919749;29;20035;-30
2022/01/29 05:27:24;;;;;;;10.07;3.83;;;;;;;;;;4919585;29;20087;-31
2022/01/29 05:29:50;;;;;;;7.35;3.20;;;;;;;;;;4919666;29;20047;-30
2022/01/29 05:32:16;;;;;;;6.22;3.10;;;;;;;;;;4919992;29;20119;-33
2022/01/29 05:34:42;;;;;;;5.18;3.38;;;;;;;;;;4919693;29;20028;-29
2022/01/29 05:37:08;;;;;;;4.93;3.08;;;;;;;;;;4920056;29;20443;-31
2022/01/29 05:39:34;;;;;;;6.18;3.40;;;;;;;;;;4919407;29;20028;-31
2022/01/29 05:42:01;;;;;;;5.38;3.08;;;;;;;;;;4919291;29;20035;-29
2022/01/29 05:44:27;;;;;;;5.60;3.22;;;;;;;;;;4919310;29;20043;-32
2022/01/29 05:46:54;;;;;;;8.18;4.45;;;;;;;;;;4919487;29;20099;-31
2022/01/29 05:49:20;;;;;;;3.85;2.95;;;;;;;;;;4919246;29;20036;-32
2022/01/29 05:51:46;;;;;;;5.90;3.88;;;;;;;;;;4919653;29;20043;-31
2022/01/29 05:54:13;;;;;;;6.07;3.72;;;;;;;;;;4919405;29;20043;-30
2022/01/29 05:56:39;;;;;;;6.00;3.70;;;;;;;;;;4919231;29;20372;-33
2022/01/29 05:59:05;;;;;;;8.50;2.90;;;;;;;;;;4919043;29;20032;-30
2022/01/29 06:01:31;;;;;;;9.23;3.17;;;;;;;;;;4918986;29;20032;-29
2022/01/29 06:03:57;;;;;;;7.95;3.05;;;;;;;;;;4918789;29;20028;-32
2022/01/29 06:06:24;;;;;;;4.63;3.28;;;;;;;;;;4919510;29;20052;-30
2022/01/29 06:08:50;;;;;;;6.90;3.83;;;;;;;;;;4919168;29;20039;-34
2022/01/29 06:11:16;;;;;;;6.22;3.88;;;;;;;;;;4918878;29;20032;-32
2022/01/29 06:13:43;;;;;;;6.00;3.08;;;;;;;;;;4918657;29;20032;-31
2022/01/29 06:16:10;;;;;;;7.82;4.15;;;;;;;;;;4918776;29;20068;-31
2022/01/29 06:18:37;;;;;;;5.72;3.63;;;;;;;;;;4918716;29;20103;-31
2022/01/29 06:21:04;;;;;;;3.38;3.03;;;;;;;;;;4919256;29;20036;-32
2022/01/29 06:23:35;;;;;;;7.18;3.50;;;;;;;;;;4918884;29;20046;-31
2022/01/29 06:26:12;;;;;;;4.88;3.28;;;;;;;;;;4918660;29;20035;-29
2022/01/29 06:28:39;;;;;;;10.77;3.35;;;;;;;;;;4918939;29;20032;-31
2022/01/29 06:31:06;;;;;;;11.80;3.97;;;;;;;;;;4918771;29;20047;-31
2022/01/29 06:33:32;;;;;;;5.40;3.45;;;;;;;;;;4918373;29;20047;-30
2022/01/29 06:35:59;;;;;;;8.68;3.20;;;;;;;;;;4918633;29;20095;-32
2022/01/29 06:38:25;;;;;;;8.38;3.45;;;;;;;;;;4918160;29;20371;-33
2022/01/29 06:40:51;;;;;;;4.40;3.25;;;;;;;;;;4919013;29;20063;-31
2022/01/29 06:43:18;;;;;;;10.32;3.53;;;;;;;;;;4918500;29;20106;-31
2022/01/29 06:45:45;;;;;;;8.45;3.63;;;;;;;;;;4918399;29;20035;-31
2022/01/29 06:48:11;;;;;;;7.32;3.47;;;;;;;;;;4918514;29;20116;-30
2022/01/29 06:50:37;;;;;;;6.43;3.28;;;;;;;;;;4918462;29;20047;-33
2022/01/29 06:53:04;;;;;;;6.53;3.45;;;;;;;;;;4918315;29;20035;-32
2022/01/29 06:55:31;;;;;;;6.88;3.00;;;;;;;;;;4918474;29;20471;-33
2022/01/29 06:57:57;;;;;;;6.18;3.05;;;;;;;;;;4918601;29;20388;-31
2022/01/29 07:00:24;;;;;;;7.22;3.30;;;;;;;;;;4918223;29;20028;-32
2022/01/29 07:02:50;;;;;;;10.35;4.07;;;;;;;;;;4918145;29;20051;-32
2022/01/29 07:05:16;;;;;;;10.95;3.50;;;;;;;;;;4918085;29;20051;-32
2022/01/29 07:07:42;;;;;;;6.18;3.30;;;;;;;;;;4918223;29;20036;-32
2022/01/29 07:10:09;;;;;;;8.00;3.95;;;;;;;;;;4918500;29;20424;-31
2022/01/29 07:12:38;;;;;;;5.35;2.60;;;;;;;;;;4918113;29;20024;-29
2022/01/29 07:15:08;;;;;;;8.45;3.45;;;;;;;;;;4918141;29;20456;-30
2022/01/29 07:17:34;;;;;;;9.23;3.50;;;;;;;;;;4918365;29;20099;-30
2022/01/29 07:20:01;;;;;;;7.60;3.17;;;;;;;;;;4918047;29;20480;-30
2022/01/29 07:22:27;;;;;;;10.82;3.55;;;;;;;;;;4918185;29;20032;-30
2022/01/29 07:24:53;;;;;;;7.75;3.83;;;;;;;;;;4918239;29;20115;-31
2022/01/29 07:27:19;;;;;;;7.07;3.72;;;;;;;;;;4918023;29;20028;-31
2022/01/29 07:29:46;;;;;;;6.80;3.45;;;;;;;;;;4918559;29;20032;-30
2022/01/29 07:32:12;;;;;;;6.15;3.30;;;;;;;;;;4917935;29;20105;-30
2022/01/29 07:34:38;;;;;;;42.63;5.85;;;;;;;;;;4918056;29;20028;-30
2022/01/29 07:37:05;;;;;;;8.45;2.70;;;;;;;;;;4918082;29;20333;-30
2022/01/29 07:39:31;;;;;;;7.18;3.92;;;;;;;;;;4917835;29;20531;-31
2022/01/29 07:41:57;;;;;;;12.50;4.10;;;;;;;;;;4917923;29;20043;-29
2022/01/29 07:44:24;;;;;;;4.65;2.83;;;;;;;;;;4917852;29;20057;-30
2022/01/29 07:46:50;;;;;;;7.32;3.08;;;;;;;;;;4918269;29;20024;-29
2022/01/29 07:49:17;;;;;;;7.40;3.00;;;;;;;;;;4918594;29;20032;-29
2022/01/29 07:51:43;;;;;;;12.23;3.72;;;;;;;;;;4921363;29;20441;-29
2022/01/29 07:54:09;;;;;;;7.60;3.15;;;;;;;;;;4921042;29;20028;-29
2022/01/29 07:56:36;;;;;;;4.95;2.58;;;;;;;;;;4921464;29;20051;-30
2022/01/29 07:59:03;;;;;;;5.63;3.08;;;;;;;;;;4921443;29;20141;-30
2022/01/29 08:01:29;;;;;;;3.90;3.13;;;;;;;;;;4921016;29;20032;-30
2022/01/29 08:03:55;;;;;;;11.30;3.25;;;;;;;;;;4921087;29;20421;-30
2022/01/29 08:06:22;;;;;;;8.68;3.20;;;;;;;;;;4921428;29;20043;-30
2022/01/29 08:08:49;;;;;;;15.35;5.55;;;;;;;;;;4921060;29;20039;-30
2022/01/29 08:11:16;;;;;;;9.90;2.70;;;;;;;;;;4921562;29;20471;-31
2022/01/29 08:13:43;;;;;;;15.55;3.20;;;;;;;;;;4920906;29;20040;-30
2022/01/29 08:16:09;;;;;;;6.85;3.30;;;;;;;;;;4921167;29;20346;-30
2022/01/29 08:18:36;;;;;;;6.20;3.50;;;;;;;;;;4921144;29;20024;-31
2022/01/29 08:21:02;;;;;;;6.70;2.85;;;;;;;;;;4921379;29;20115;-31
2022/01/29 08:23:28;;;;;;;12.05;4.20;;;;;;;;;;4920783;29;20051;-31
2022/01/29 08:25:54;;;;;;;13.20;3.35;;;;;;;;;;4920785;29;20060;-32
2022/01/29 08:28:21;;;;;;;11.93;4.10;;;;;;;;;;4920743;29;20456;-31
2022/01/29 08:30:47;;;;;;;10.38;3.10;;;;;;;;;;4919829;29;20062;-30
2022/01/29 08:33:17;;;;;;;9.50;3.75;;;;;;;;;;4920946;29;20058;-31
2022/01/29 08:35:44;;;;;;;4.82;2.30;;;;;;;;;;4920605;29;20043;-31
2022/01/29 08:38:10;;;;;;;11.90;3.25;;;;;;;;;;4920954;29;20089;-30
2022/01/29 08:40:36;;;;;;;9.70;2.97;;;;;;;;;;4920515;29;20039;-32
2022/01/29 08:43:02;;;;;;;8.27;3.53;;;;;;;;;;4920319;29;20043;-31
2022/01/29 08:45:28;;;;;;;7.40;3.00;;;;;;;;;;4920734;29;20024;-33
2022/01/29 08:47:54;;;;;;;13.25;3.17;;;;;;;;;;4920443;29;20100;-31
2022/01/29 08:50:21;;;;;;;11.30;3.22;;;;;;;;;;4920400;29;20048;-32
2022/01/29 08:52:47;;;;;;;15.70;3.60;;;;;;;;;;4920441;29;20032;-31
2022/01/29 08:55:13;;;;;;;13.13;3.28;;;;;;;;;;4920424;29;20345;-32
2022/01/29 08:57:39;;;;;;;16.60;3.20;;;;;;;;;;4920482;29;20465;-32
2022/01/29 09:00:07;;;;;;;12.43;3.22;;;;;;;;;;4920192;29;20036;-31
2022/01/29 09:02:33;;;;;;;11.00;2.90;;;;;;;;;;4918972;29;20039;-31
2022/01/29 09:04:59;;;;;;;9.98;4.15;;;;;;;;;;4919948;29;20480;-32
2022/01/29 09:07:26;;;;;;;9.88;3.40;;;;;;;;;;4920327;29;20356;-31
2022/01/29 09:09:53;;;;;;;16.50;4.03;;;;;;;;;;4920067;29;20359;-31
2022/01/29 09:12:19;;;;;;;11.38;3.47;;;;;;;;;;4920237;29;20059;-33
2022/01/29 09:14:46;;;;;;;9.45;2.90;;;;;;;;;;4920213;29;20043;-31
2022/01/29 09:17:12;;;;;;;9.18;2.83;;;;;;;;;;4920198;29;20043;-32
2022/01/29 09:19:38;;;;;;;8.05;3.03;;;;;;;;;;4920151;29;20368;-30
2022/01/29 09:22:05;;;;;;;5.78;3.15;;;;;;;;;;4919625;29;20076;-32
2022/01/29 09:24:31;;;;;;;12.18;3.45;;;;;;;;;;4919711;29;20070;-32
2022/01/29 09:26:57;;;;;;;5.47;2.55;;;;;;;;;;4920037;29;20032;-31
2022/01/29 09:29:24;;;;;;;23.52;4.20;;;;;;;;;;4919780;29;20024;-30
2022/01/29 09:31:51;;;;;;;13.00;3.85;;;;;;;;;;4919620;29;20028;-32
2022/01/29 09:34:17;;;;;;;9.13;2.75;;;;;;;;;;4919474;29;20036;-31
2022/01/29 09:36:43;;;;;;;9.52;2.53;;;;;;;;;;4919524;29;20123;-32
2022/01/29 09:39:09;;;;;;;15.05;2.85;;;;;;;;;;4919780;29;20028;-31
2022/01/29 09:41:37;;;;;;;9.43;3.13;;;;;;;;;;4919838;29;20437;-30
2022/01/29 09:44:03;;;;;;;5.60;2.80;;;;;;;;;;4919424;29;20468;-31
2022/01/29 09:46:30;;;;;;;12.98;2.80;;;;;;;;;;4919482;29;20064;-32
2022/01/29 09:48:57;;;;;;;7.63;3.03;;;;;;;;;;4919339;29;20047;-31
2022/01/29 09:51:23;;;;;;;13.50;4.82;;;;;;;;;;4919437;29;20107;-32
2022/01/29 09:53:49;;;;;;;15.65;3.72;;;;;;;;;;4919548;29;20028;-30
2022/01/29 09:56:16;;;;;;;16.15;3.42;;;;;;;;;;4919304;29;20043;-31
2022/01/29 09:58:42;;;;;;;7.97;3.83;;;;;;;;;;4919284;29;20040;-33
2022/01/29 10:01:09;;;;;;;15.95;2.97;;;;;;;;;;4919263;29;20062;-32
2022/01/29 10:03:35;;;;;;;13.35;4.35;;;;;;;;;;4919116;29;20032;-31
2022/01/29 10:06:03;;;;;;;16.83;2.85;;;;;;;;;;4920730;29;20089;-30
2022/01/29 10:08:29;;;;;;;8.88;3.22;;;;;;;;;;4919036;29;20486;-31
2022/01/29 10:11:00;;;;;;;12.45;3.20;;;;;;;;;;4919006;29;20083;-32
2022/01/29 10:13:27;;;;;;;5.10;3.15;;;;;;;;;;4918914;29;20032;-31
2022/01/29 10:16:04;;;;;;;9.90;2.83;;;;;;;;;;4919515;29;20025;-31
2022/01/29 10:18:31;;;;;;;12.90;4.13;;;;;;;;;;4919014;29;20404;-30
2022/01/29 10:21:07;;;;;;;11.43;3.58;;;;;;;;;;4919022;29;20301;-29
2022/01/29 10:23:33;;;;;;;8.88;2.95;;;;;;;;;;4918852;29;20040;-30
2022/01/29 10:26:00;;;;;;;13.05;2.67;;;;;;;;;;4918664;29;20028;-28
2022/01/29 10:28:27;;;;;;;10.13;3.72;;;;;;;;;;4918521;29;20115;-30
2022/01/29 10:30:57;;;;;;;14.65;3.88;;;;;;;;;;4919164;29;20040;-29
2022/01/29 10:33:34;;;;;;;15.30;4.10;;;;;;;;;;4918385;29;20024;-30
2022/01/29 10:36:11;;;;;;;8.38;2.90;;;;;;;;;;4917460;29;20118;-30
2022/01/29 10:38:40;;;;;;;9.60;3.08;;;;;;;;;;4918708;29;20083;-29
2022/01/29 10:41:26;;;;;;;9.25;3.53;;;;;;;;;;4918406;29;20033;-29
2022/01/29 10:43:59;;;;;;;14.65;2.88;;;;;;;;;;4918064;29;20344;-29
2022/01/29 10:46:26;;;;;;;8.23;3.45;;;;;;;;;;4917999;29;20027;-30
2022/01/29 10:48:52;;;;;;;7.53;2.67;;;;;;;;;;4918674;29;20044;-29
2022/01/29 10:51:18;;;;;;;13.93;3.20;;;;;;;;;;4918553;29;20036;-30
2022/01/29 10:53:45;;;;;;;11.43;2.83;;;;;;;;;;4917993;29;20024;-29
2022/01/29 10:56:11;;;;;;;6.55;3.22;;;;;;;;;;4918219;29;20109;-30
2022/01/29 10:58:40;;;;;;;10.85;2.90;;;;;;;;;;4918448;29;20061;-31
2022/01/29 11:01:13;;;;;;;10.52;3.75;;;;;;;;;;4918313;29;20092;-30
2022/01/29 11:03:40;;;;;;;13.80;3.42;;;;;;;;;;4918400;29;20058;-30
2022/01/29 11:06:09;;;;;;;5.38;3.65;;;;;;;;;;4918176;29;20063;-30
2022/01/29 11:08:37;;;;;;;9.27;2.97;;;;;;;;;;4918802;29;20040;-30
2022/01/29 11:11:04;;;;;;;12.40;2.85;;;;;;;;;;4918783;29;20096;-31
2022/01/29 11:13:30;;;;;;;12.02;2.78;;;;;;;;;;4918374;29;20059;-29
2022/01/29 11:15:58;;;;;;;11.13;3.15;;;;;;;;;;4918495;29;20445;-29
2022/01/29 11:18:27;;;;;;;9.00;2.80;;;;;;;;;;4918127;29;20051;-29
2022/01/29 11:20:54;;;;;;;6.30;2.83;;;;;;;;;;4918379;29;20499;-30
2022/01/29 11:23:21;;;;;;;12.70;3.00;;;;;;;;;;4918274;29;20036;-29
2022/01/29 11:25:47;;;;;;;8.55;3.03;;;;;;;;;;4921147;29;20047;-29
2022/01/29 11:28:15;;;;;;;11.85;2.72;;;;;;;;;;4921810;29;20043;-30
2022/01/29 11:30:43;;;;;;;7.85;2.42;;;;;;;;;;4922247;29;20040;-30
2022/01/29 11:33:09;;;;;;;4.43;2.42;;;;;;;;;;4921854;29;20127;-30
2022/01/29 11:35:50;;;;;;;8.52;2.42;;;;;;;;;;4921998;29;20441;-30
2022/01/29 11:38:27;;;;;;;11.55;2.80;;;;;;;;;;4922015;29;20404;-30
2022/01/29 11:41:04;;;;;;;14.30;4.50;;;;;;;;;;4921649;29;20479;-30
2022/01/29 11:43:34;;;;;;;10.32;2.40;;;;;;;;;;4921692;29;20024;-29
2022/01/29 11:46:05;;;;;;;4.90;2.40;;;;;;;;;;4922243;29;20040;-31
2022/01/29 11:48:34;;;;;;;;;;;;;;;;;;4921919;29;20032;-29
2022/01/29 11:51:02;;;;;;;12.32;2.30;;;;;;;;;;4921440;29;19917;-29
2022/01/29 11:53:48;;;;;;;7.15;3.00;;;;;;;;;;4921659;29;20121;-30
2022/01/29 11:56:27;;;;;;;15.50;4.03;;;;;;;;;;4921082;29;20088;-29
2022/01/29 11:59:13;;;;;;;5.75;2.63;;;;;;;;;;4921123;29;20040;-30
2022/01/29 12:01:39;;;;;;;10.02;2.45;;;;;;;;;;4921347;29;20479;-30
2022/01/29 12:04:06;;;;;;;10.45;3.25;;;;;;;;;;4920802;29;20356;-29
2022/01/29 12:06:35;;;;;;;18.10;2.97;;;;;;;;;;4921072;29;20047;-29
2022/01/29 12:09:06;;;;;;;7.07;2.60;;;;;;;;;;4921129;29;20032;-29
2022/01/29 12:11:38;;;;;;;5.40;3.03;;;;;;;;;;4921068;29;20050;-29
2022/01/29 12:14:13;;;;;;;7.82;2.13;;;;;;;;;;4921503;29;20039;-31
2022/01/29 12:16:47;;;;;;;12.63;2.97;;;;;;;;;;4920937;29;20028;-28
2022/01/29 12:19:42;;;;;;;13.43;2.45;;;;;;;;;;4920796;29;20067;-29
2022/01/29 12:22:12;;;;;;;6.35;2.20;;;;;;;;;;4919788;29;20070;-30
2022/01/29 12:24:39;;;;;;;10.80;2.47;;;;;;;;;;4920806;29;20088;-31
2022/01/29 12:27:05;;;;;;;10.63;2.80;;;;;;;;;;4920691;29;20051;-29
2022/01/29 12:29:32;;;;;;;6.60;2.22;;;;;;;;;;4920922;29;20035;-30
2022/01/29 12:31:59;;;;;;;11.85;3.83;;;;;;;;;;4920788;29;20468;-29
2022/01/29 12:34:27;;;;;;;13.38;3.13;;;;;;;;;;4920782;29;20459;-30
2022/01/29 12:37:07;;;;;;;7.22;2.70;;;;;;;;;;4919369;29;20062;-31
2022/01/29 12:39:34;;;;;;;10.25;3.20;;;;;;;;;;4920807;29;20047;-31
2022/01/29 12:42:42;;;;;;;13.13;2.97;;;;;;;;;;4920640;29;20076;-29
2022/01/29 12:44:52;;;;;;;7.22;2.80;;;;;;;;;;4919897;29;20067;-30
2022/01/29 12:47:26;;;;;;;6.38;2.28;;;;;;;;;;4920817;29;20035;-30
2022/01/29 12:49:52;;;;;;;9.07;2.75;;;;;;;;;;4920542;29;20163;-29
2022/01/29 12:52:18;;;;;;;6.60;2.63;;;;;;;;;;4920508;29;20354;-29
2022/01/29 12:54:58;;;;;;;8.55;2.35;;;;;;;;;;4920370;29;20028;-30
2022/01/29 12:57:25;;;;;;;8.13;2.33;;;;;;;;;;4920427;29;20055;-30
2022/01/29 12:59:51;;;;;;;10.73;3.40;;;;;;;;;;4920417;29;20103;-29
2022/01/29 13:02:21;;;;;;;8.00;3.42;;;;;;;;;;4920065;29;20039;-30
2022/01/29 13:04:48;;;;;;;8.07;2.90;;;;;;;;;;4919112;29;20048;-30
2022/01/29 13:07:17;;;;;;;13.35;3.15;;;;;;;;;;4919988;29;20051;-29
2022/01/29 13:09:44;;;;;;;12.05;2.90;;;;;;;;;;4919945;29;20135;-30
2022/01/29 13:12:17;;;;;;;9.07;2.42;;;;;;;;;;4919791;29;20054;-31
2022/01/29 13:14:43;;;;;;;8.45;2.70;;;;;;;;;;4920046;29;20384;-30
2022/01/29 13:17:10;;;;;;;7.15;2.35;;;;;;;;;;4920044;29;20369;-30
2022/01/29 13:19:37;;;;;;;12.20;3.05;;;;;;;;;;4920282;29;20039;-30
2022/01/29 13:22:07;;;;;;;10.52;2.65;;;;;;;;;;4919469;29;20036;-30
2022/01/29 13:24:35;;;;;;;6.57;2.33;;;;;;;;;;4919696;29;20036;-30
2022/01/29 13:27:03;;;;;;;6.18;2.25;;;;;;;;;;4919655;29;20036;-29
2022/01/29 13:29:34;;;;;;;10.60;3.20;;;;;;;;;;4919530;29;20036;-29
2022/01/29 13:32:07;;;;;;;13.38;2.60;;;;;;;;;;4919618;29;20466;-30
2022/01/29 13:34:36;;;;;;;6.32;3.00;;;;;;;;;;4919432;29;20095;-29
2022/01/29 13:37:05;;;;;;;8.30;3.30;;;;;;;;;;4919388;29;20036;-30
2022/01/29 13:39:46;;;;;;;9.50;3.78;;;;;;;;;;4919362;29;20034;-29
2022/01/29 13:42:18;;;;;;;8.55;2.95;;;;;;;;;;4919565;29;20040;-29
2022/01/29 13:45:04;;;;;;;6.50;2.40;;;;;;;;;;4919620;29;20036;-30
2022/01/29 13:47:31;;;;;;;3.50;2.20;;;;;;;;;;4918938;29;20056;-30
2022/01/29 13:49:57;;;;;;;7.68;2.33;;;;;;;;;;4919176;29;20040;-30
2022/01/29 13:52:23;;;;;;;8.18;3.03;;;;;;;;;;4919355;29;20043;-30
2022/01/29 13:54:50;;;;;;;11.10;2.90;;;;;;;;;;4919507;29;20101;-30
2022/01/29 13:57:17;;;;;;;8.00;2.65;;;;;;;;;;4919006;29;20460;-29
2022/01/29 13:59:46;;;;;;;8.70;2.92;;;;;;;;;;4919282;29;20107;-31
2022/01/29 14:02:12;;;;;;;6.93;2.25;;;;;;;;;;4918877;29;20428;-31
2022/01/29 14:04:40;;;;;;;7.15;3.25;;;;;;;;;;4919126;29;20048;-30
2022/01/29 14:07:09;;;;;;;6.80;2.88;;;;;;;;;;4919197;29;20040;-30
2022/01/29 14:09:50;;;;;;;10.07;2.33;;;;;;;;;;4919365;29;20103;-31
2022/01/29 14:12:27;;;;;;;11.43;2.78;;;;;;;;;;4919295;29;20028;-30
2022/01/29 14:14:57;;;;;;;4.03;2.72;;;;;;;;;;4919016;29;20036;-29
2022/01/29 14:17:27;;;;;;;6.60;2.50;;;;;;;;;;4919059;29;20035;-30
2022/01/29 14:19:56;;;;;;;2.47;1.88;;;;;;;;;;4918811;29;20096;-29
2022/01/29 14:22:23;;;;;;;9.93;2.45;;;;;;;;;;4918664;29;20040;-30
2022/01/29 14:24:50;;;;;;;10.13;2.85;;;;;;;;;;4918969;29;20024;-29
2022/01/29 14:27:16;;;;;;;19.08;2.65;;;;;;;;;;4918884;29;20044;-30
2022/01/29 14:29:43;;;;;;;5.13;2.13;;;;;;;;;;4918711;29;20036;-30
2022/01/29 14:32:10;;;;;;;3.33;2.63;;;;;;;;;;4918475;29;20032;-30
2022/01/29 14:34:37;;;;;;;5.57;2.10;;;;;;;;;;4919169;29;20035;-29
2022/01/29 14:37:03;;;;;;;6.75;2.45;;;;;;;;;;4918668;29;20024;-30
2022/01/29 14:39:30;;;;;;;6.40;2.47;;;;;;;;;;4918481;29;20032;-30
2022/01/29 14:41:57;;;;;;;7.18;2.08;;;;;;;;;;4918675;29;20377;-29
2022/01/29 14:44:23;;;;;;;11.45;3.13;;;;;;;;;;4918345;29;20486;-31
2022/01/29 14:46:50;;;;;;;9.35;2.45;;;;;;;;;;4918779;29;20422;-30
2022/01/29 14:49:17;;;;;;;13.77;5.30;;;;;;;;;;4918682;29;20035;-30
2022/01/29 14:51:45;;;;;;;8.50;2.30;;;;;;;;;;4919138;29;20060;-29
2022/01/29 14:54:11;;;;;;;5.70;2.35;;;;;;;;;;4918633;29;20119;-28